To NAV CANADA Home Page Login to a new session Search on AWWS site Disclaimer Vers la page française équivalente Tips FAQ What's new on the site To the Forecasts and Observations / NOTAM section To "File a Flight Plan" website Publications and other links Update of the User's profile FIC Telephone Numbers My Weather Data Folder Route Weather Data Regional Weather Data Local Weather Data To the Forecasts and Observations / NOTAM section
Request Generated 10/19/2018 at 16:36:22 UTC . Weather information available at that time is displayed.

METAR/TAF

WABUSH/NL    (show WxCam)

METAR CYWK 191600Z 26004KT 240V360 15SM FEW020 M06/M14 A2978 RMK CF2 SLP125=
METAR CYWK 191500Z 30005KT 260V320 15SM FEW020 M07/M13 A2981 RMK CF2 SLP133=
METAR CYWK 191400Z 27004KT 15SM FEW020 M08/M14 A2980 RMK CF2 SLP134=

TAF CYWK 191338Z 1914/2002 28006KT P6SM SCT020 TEMPO 1914/1921 BKN020
BECMG 1914/1916 23006KT
FM192100 15006KT P6SM FEW020 BKN200
FM200100 14008KT P6SM SCT015 OVC040 TEMPO 2001/2002 4SM -SN
OVC020
RMK NXT FCST BY 192000Z=
Your time UTC time
Weather data provided by Environment Canada and NAV CANADA